SKBQ/BAQ METAR and TAF weather

Enter ICAO airport designator
Station Type Date Time Source
SKBQ METAR 2022/11/27 09:00 UTC NOAA

SKBQ 270900Z VRB02KT 9999 BNK005 26/25 Q1010 NOSIG RMK A2984


Station Type Date Time Source
SKBQ Decoded METAR 2022/11/27 09:00 UTC NOAA

Barranquilla / Ernestocortissoz, Colombia (SKBQ) 10-53N 074-47W 30M
Nov 27, 2022 - 04:00 AM EST / 2022.11.27 0900 UTC
Wind: Variable at 2 MPH (2 KT):0
Visibility: greater than 7 mile(s):0
Temperature: 78 F (26 C)
Dew Point: 77 F (25 C)
Relative Humidity: 94%
Pressure (altimeter): 29.83 in. Hg (1010 hPa)
ob: SKBQ 270900Z VRB02KT 9999 BNK005 26/25 Q1010 NOSIG RMK A2984
cycle: 9

Station Type Date Time Source
SKBQ TAF 2022/11/27 06:59 UTC NOAA

TAF SKBQ 270430Z 2706/2806 VRB02KT 9999 FEW015
TEMPO 2709/2712 5000 BR BKN012
TEMPO 2713/2715 RA SCT015TCU PROB40
TEMPO 2717/2721 TSRA SCT015CB TX33/2718Z TN25/2710Z

Example: see airport list